sensor_id;sensor_type;location;lat;lon;timestamp;pressure;altitude;pressure_sealevel;temperature;humidity
49723;BME280;43484;43.608;1.458;2022-08-06T00:01:12;100015.09;;;25.07;100.00
49723;BME280;43484;43.608;1.458;2022-08-06T00:03:39;100027.56;;;24.97;100.00
49723;BME280;43484;43.608;1.458;2022-08-06T00:06:06;100019.88;;;24.91;100.00
49723;BME280;43484;43.608;1.458;2022-08-06T00:08:34;100014.31;;;24.69;100.00
49723;BME280;43484;43.608;1.458;2022-08-06T00:11:03;100013.56;;;24.63;100.00
49723;BME280;43484;43.608;1.458;2022-08-06T00:13:29;100009.06;;;24.69;100.00
49723;BME280;43484;43.608;1.458;2022-08-06T00:15:56;100014.28;;;24.71;100.00
49723;BME280;43484;43.608;1.458;2022-08-06T00:18:43;100008.47;;;24.92;100.00
49723;BME280;43484;43.608;1.458;2022-08-06T00:21:09;100002.97;;;24.69;100.00
49723;BME280;43484;43.608;1.458;2022-08-06T00:23:57;100010.69;;;24.73;100.00
49723;BME280;43484;43.608;1.458;2022-08-06T00:26:24;100013.66;;;24.58;100.00
49723;BME280;43484;43.608;1.458;2022-08-06T00:28:54;100019.97;;;24.51;100.00
49723;BME280;43484;43.608;1.458;2022-08-06T00:31:21;100018.47;;;24.40;100.00
49723;BME280;43484;43.608;1.458;2022-08-06T00:33:48;100012.56;;;24.67;100.00
49723;BME280;43484;43.608;1.458;2022-08-06T00:36:27;100015.28;;;24.64;100.00
49723;BME280;43484;43.608;1.458;2022-08-06T00:38:58;100015.44;;;24.21;100.00
49723;BME280;43484;43.608;1.458;2022-08-06T00:41:27;100018.03;;;24.23;100.00
49723;BME280;43484;43.608;1.458;2022-08-06T00:44:12;100020.69;;;24.20;100.00
49723;BME280;43484;43.608;1.458;2022-08-06T00:46:41;100011.94;;;24.22;100.00
49723;BME280;43484;43.608;1.458;2022-08-06T00:49:08;100012.53;;;24.33;100.00
49723;BME280;43484;43.608;1.458;2022-08-06T00:51:37;100015.34;;;24.26;100.00
49723;BME280;43484;43.608;1.458;2022-08-06T00:54:17;100013.41;;;24.34;100.00
49723;BME280;43484;43.608;1.458;2022-08-06T00:57:00;100015.03;;;24.39;100.00
49723;BME280;43484;43.608;1.458;2022-08-06T00:59:27;100026.38;;;24.38;100.00
49723;BME280;43484;43.608;1.458;2022-08-06T01:02:00;100030.47;;;24.12;100.00
49723;BME280;43484;43.608;1.458;2022-08-06T01:04:35;100028.06;;;24.04;100.00
49723;BME280;43484;43.608;1.458;2022-08-06T01:07:03;100034.00;;;24.11;100.00
49723;BME280;43484;43.608;1.458;2022-08-06T01:09:34;100022.09;;;24.36;100.00
49723;BME280;43484;43.608;1.458;2022-08-06T01:12:21;100023.13;;;24.29;100.00
49723;BME280;43484;43.608;1.458;2022-08-06T01:14:58;100023.56;;;24.09;100.00
49723;BME280;43484;43.608;1.458;2022-08-06T01:17:36;100023.50;;;23.70;100.00
49723;BME280;43484;43.608;1.458;2022-08-06T01:26:35;100024.19;;;24.20;100.00
49723;BME280;43484;43.608;1.458;2022-08-06T01:29:26;100019.81;;;23.80;100.00
49723;BME280;43484;43.608;1.458;2022-08-06T01:32:04;100018.22;;;24.14;100.00
49723;BME280;43484;43.608;1.458;2022-08-06T01:34:53;100022.47;;;23.78;100.00
49723;BME280;43484;43.608;1.458;2022-08-06T01:37:47;100022.50;;;23.77;100.00
49723;BME280;43484;43.608;1.458;2022-08-06T01:40:25;100024.28;;;23.76;100.00
49723;BME280;43484;43.608;1.458;2022-08-06T01:42:54;100019.50;;;23.53;100.00
49723;BME280;43484;43.608;1.458;2022-08-06T01:45:27;100027.59;;;23.84;100.00
49723;BME280;43484;43.608;1.458;2022-08-06T01:48:18;100026.19;;;23.67;100.00
49723;BME280;43484;43.608;1.458;2022-08-06T01:50:57;100017.13;;;23.41;100.00
49723;BME280;43484;43.608;1.458;2022-08-06T01:53:37;100017.84;;;23.48;100.00
49723;BME280;43484;43.608;1.458;2022-08-06T01:56:26;100023.59;;;23.67;100.00
49723;BME280;43484;43.608;1.458;2022-08-06T01:59:16;100021.97;;;23.59;100.00
49723;BME280;43484;43.608;1.458;2022-08-06T02:01:47;100027.06;;;23.21;100.00
49723;BME280;43484;43.608;1.458;2022-08-06T02:04:22;100027.56;;;23.41;100.00
49723;BME280;43484;43.608;1.458;2022-08-06T02:06:50;100032.22;;;23.26;100.00
49723;BME280;43484;43.608;1.458;2022-08-06T02:09:20;100028.38;;;23.45;100.00
49723;BME280;43484;43.608;1.458;2022-08-06T02:12:07;100031.25;;;23.31;100.00
49723;BME280;43484;43.608;1.458;2022-08-06T02:14:43;100021.00;;;23.19;100.00
49723;BME280;43484;43.608;1.458;2022-08-06T02:17:15;100025.03;;;23.38;100.00
49723;BME280;43484;43.608;1.458;2022-08-06T02:19:52;100018.16;;;23.33;100.00
49723;BME280;43484;43.608;1.458;2022-08-06T02:22:39;100013.16;;;23.21;100.00
49723;BME280;43484;43.608;1.458;2022-08-06T02:25:10;100015.91;;;23.13;100.00
49723;BME280;43484;43.608;1.458;2022-08-06T02:27:52;100014.13;;;23.15;100.00
49723;BME280;43484;43.608;1.458;2022-08-06T02:30:28;100021.25;;;23.07;100.00
49723;BME280;43484;43.608;1.458;2022-08-06T02:33:04;100016.31;;;22.89;100.00
49723;BME280;43484;43.608;1.458;2022-08-06T02:35:47;100015.88;;;23.15;100.00
49723;BME280;43484;43.608;1.458;2022-08-06T02:38:25;100016.06;;;23.04;100.00
49723;BME280;43484;43.608;1.458;2022-08-06T02:40:59;100007.31;;;23.07;100.00
49723;BME280;43484;43.608;1.458;2022-08-06T02:43:34;100005.31;;;22.71;100.00
49723;BME280;43484;43.608;1.458;2022-08-06T02:46:21;100002.91;;;23.09;100.00
49723;BME280;43484;43.608;1.458;2022-08-06T02:48:54;100010.16;;;22.93;100.00
49723;BME280;43484;43.608;1.458;2022-08-06T02:51:28;100010.63;;;22.66;100.00
49723;BME280;43484;43.608;1.458;2022-08-06T02:54:28;100007.88;;;22.75;100.00
49723;BME280;43484;43.608;1.458;2022-08-06T02:57:06;100011.34;;;22.77;100.00
49723;BME280;43484;43.608;1.458;2022-08-06T02:59:39;100007.22;;;23.11;100.00
49723;BME280;43484;43.608;1.458;2022-08-06T03:02:10;100014.03;;;22.71;100.00
49723;BME280;43484;43.608;1.458;2022-08-06T03:04:44;100000.47;;;22.48;100.00
49723;BME280;43484;43.608;1.458;2022-08-06T03:07:24;99995.91;;;22.61;100.00
49723;BME280;43484;43.608;1.458;2022-08-06T03:09:57;100006.31;;;22.65;100.00
49723;BME280;43484;43.608;1.458;2022-08-06T03:12:24;100012.47;;;22.60;100.00
49723;BME280;43484;43.608;1.458;2022-08-06T03:14:58;100014.72;;;22.82;100.00
49723;BME280;43484;43.608;1.458;2022-08-06T03:17:37;100017.25;;;22.87;100.00
49723;BME280;43484;43.608;1.458;2022-08-06T03:20:06;100015.75;;;22.71;100.00
49723;BME280;43484;43.608;1.458;2022-08-06T03:22:46;100006.31;;;22.65;100.00
49723;BME280;43484;43.608;1.458;2022-08-06T03:25:21;99997.03;;;22.45;100.00
49723;BME280;43484;43.608;1.458;2022-08-06T03:27:50;99998.91;;;22.36;100.00
49723;BME280;43484;43.608;1.458;2022-08-06T03:30:28;100001.66;;;22.27;100.00
49723;BME280;43484;43.608;1.458;2022-08-06T03:33:05;100009.00;;;22.59;100.00
49723;BME280;43484;43.608;1.458;2022-08-06T03:35:55;100009.94;;;22.57;100.00
49723;BME280;43484;43.608;1.458;2022-08-06T03:38:23;100004.75;;;22.52;100.00
49723;BME280;43484;43.608;1.458;2022-08-06T03:40:55;100013.47;;;22.51;100.00
49723;BME280;43484;43.608;1.458;2022-08-06T03:43:23;100019.38;;;22.65;100.00
49723;BME280;43484;43.608;1.458;2022-08-06T03:46:01;100015.69;;;22.19;100.00
49723;BME280;43484;43.608;1.458;2022-08-06T03:48:35;100008.41;;;22.39;100.00
49723;BME280;43484;43.608;1.458;2022-08-06T03:51:13;100008.47;;;22.36;100.00
49723;BME280;43484;43.608;1.458;2022-08-06T03:53:42;99990.75;;;22.00;100.00
49723;BME280;43484;43.608;1.458;2022-08-06T03:56:20;99993.47;;;21.92;100.00
49723;BME280;43484;43.608;1.458;2022-08-06T03:58:59;100001.00;;;22.13;100.00
49723;BME280;43484;43.608;1.458;2022-08-06T04:01:33;99987.38;;;21.93;100.00
49723;BME280;43484;43.608;1.458;2022-08-06T04:04:17;99985.22;;;22.21;100.00
49723;BME280;43484;43.608;1.458;2022-08-06T04:06:54;99987.03;;;22.16;100.00
49723;BME280;43484;43.608;1.458;2022-08-06T04:09:23;100000.59;;;22.39;100.00
49723;BME280;43484;43.608;1.458;2022-08-06T04:12:11;100004.00;;;22.44;100.00
49723;BME280;43484;43.608;1.458;2022-08-06T04:14:58;100011.09;;;22.36;100.00
49723;BME280;43484;43.608;1.458;2022-08-06T04:17:26;100007.91;;;22.16;100.00
49723;BME280;43484;43.608;1.458;2022-08-06T04:19:59;100006.47;;;21.95;100.00
49723;BME280;43484;43.608;1.458;2022-08-06T04:22:28;100003.63;;;22.10;100.00
49723;BME280;43484;43.608;1.458;2022-08-06T04:25:15;100007.78;;;22.25;100.00
49723;BME280;43484;43.608;1.458;2022-08-06T04:27:42;100000.25;;;22.04;100.00
49723;BME280;43484;43.608;1.458;2022-08-06T04:30:22;99992.00;;;21.69;100.00
49723;BME280;43484;43.608;1.458;2022-08-06T04:32:52;100002.88;;;22.02;100.00
49723;BME280;43484;43.608;1.458;2022-08-06T04:35:28;99992.00;;;21.72;100.00
49723;BME280;43484;43.608;1.458;2022-08-06T04:38:18;99964.38;;;21.56;100.00
49723;BME280;43484;43.608;1.458;2022-08-06T04:40:55;99986.72;;;21.76;100.00
49723;BME280;43484;43.608;1.458;2022-08-06T04:43:22;99975.53;;;21.67;100.00
49723;BME280;43484;43.608;1.458;2022-08-06T04:46:04;99988.91;;;21.40;100.00
49723;BME280;43484;43.608;1.458;2022-08-06T04:48:44;99981.88;;;21.46;100.00
49723;BME280;43484;43.608;1.458;2022-08-06T04:51:13;99972.38;;;21.41;100.00
49723;BME280;43484;43.608;1.458;2022-08-06T04:54:03;99983.31;;;21.71;100.00
49723;BME280;43484;43.608;1.458;2022-08-06T04:56:32;100000.66;;;21.77;100.00
49723;BME280;43484;43.608;1.458;2022-08-06T04:59:04;99988.53;;;21.70;100.00
49723;BME280;43484;43.608;1.458;2022-08-06T05:01:33;99987.75;;;21.63;100.00
49723;BME280;43484;43.608;1.458;2022-08-06T05:04:20;99975.91;;;21.38;100.00
49723;BME280;43484;43.608;1.458;2022-08-06T05:09:25;99978.16;;;21.64;100.00
49723;BME280;43484;43.608;1.458;2022-08-06T05:12:15;99985.22;;;21.56;100.00
49723;BME280;43484;43.608;1.458;2022-08-06T05:14:58;99987.66;;;21.69;100.00
49723;BME280;43484;43.608;1.458;2022-08-06T05:17:34;99980.88;;;21.58;100.00
49723;BME280;43484;43.608;1.458;2022-08-06T05:20:11;99989.34;;;21.75;100.00
49723;BME280;43484;43.608;1.458;2022-08-06T05:22:58;99972.50;;;21.30;100.00
49723;BME280;43484;43.608;1.458;2022-08-06T05:25:31;99968.94;;;21.39;100.00
49723;BME280;43484;43.608;1.458;2022-08-06T05:28:03;99950.84;;;21.28;100.00
49723;BME280;43484;43.608;1.458;2022-08-06T05:30:47;99951.66;;;21.30;100.00
49723;BME280;43484;43.608;1.458;2022-08-06T05:35:56;99960.91;;;21.57;100.00
49723;BME280;43484;43.608;1.458;2022-08-06T05:38:31;99978.19;;;21.62;100.00
49723;BME280;43484;43.608;1.458;2022-08-06T05:41:11;100003.94;;;21.89;100.00
49723;BME280;43484;43.608;1.458;2022-08-06T05:43:39;100006.56;;;21.88;100.00
49723;BME280;43484;43.608;1.458;2022-08-06T05:46:28;99997.13;;;21.76;100.00
49723;BME280;43484;43.608;1.458;2022-08-06T05:49:10;99974.97;;;21.42;100.00
49723;BME280;43484;43.608;1.458;2022-08-06T05:52:11;100007.53;;;21.81;100.00
49723;BME280;43484;43.608;1.458;2022-08-06T05:54:49;100002.66;;;21.52;100.00
49723;BME280;43484;43.608;1.458;2022-08-06T06:00:09;100018.63;;;21.96;100.00
49723;BME280;43484;43.608;1.458;2022-08-06T06:02:59;100022.16;;;21.92;100.00
49723;BME280;43484;43.608;1.458;2022-08-06T06:05:29;100026.41;;;22.01;100.00
49723;BME280;43484;43.608;1.458;2022-08-06T06:08:16;100037.66;;;22.04;100.00
49723;BME280;43484;43.608;1.458;2022-08-06T06:11:06;100019.75;;;21.76;100.00
49723;BME280;43484;43.608;1.458;2022-08-06T06:13:36;100000.03;;;21.52;100.00
49723;BME280;43484;43.608;1.458;2022-08-06T06:16:31;99979.22;;;21.49;100.00
49723;BME280;43484;43.608;1.458;2022-08-06T06:19:17;99988.72;;;21.55;100.00
49723;BME280;43484;43.608;1.458;2022-08-06T06:22:07;100016.34;;;21.71;100.00
49723;BME280;43484;43.608;1.458;2022-08-06T06:25:10;100004.38;;;21.55;100.00
49723;BME280;43484;43.608;1.458;2022-08-06T06:27:45;99996.41;;;21.65;100.00
49723;BME280;43484;43.608;1.458;2022-08-06T06:30:30;100025.38;;;22.11;100.00
49723;BME280;43484;43.608;1.458;2022-08-06T06:33:15;100023.13;;;21.87;100.00
49723;BME280;43484;43.608;1.458;2022-08-06T06:36:11;100029.06;;;21.98;100.00
49723;BME280;43484;43.608;1.458;2022-08-06T06:38:55;100012.00;;;21.70;100.00
49723;BME280;43484;43.608;1.458;2022-08-06T06:44:38;100004.06;;;21.79;100.00
49723;BME280;43484;43.608;1.458;2022-08-06T06:50:46;100013.59;;;21.84;100.00
49723;BME280;43484;43.608;1.458;2022-08-06T06:53:18;100032.19;;;22.21;100.00
49723;BME280;43484;43.608;1.458;2022-08-06T06:55:52;100027.03;;;22.18;100.00
49723;BME280;43484;43.608;1.458;2022-08-06T06:59:07;100051.97;;;22.38;100.00
49723;BME280;43484;43.608;1.458;2022-08-06T07:01:45;100048.34;;;22.47;100.00
49723;BME280;43484;43.608;1.458;2022-08-06T07:04:21;100058.63;;;22.59;100.00
49723;BME280;43484;43.608;1.458;2022-08-06T07:06:54;100069.75;;;22.72;100.00
49723;BME280;43484;43.608;1.458;2022-08-06T07:09:28;100077.06;;;22.49;100.00
49723;BME280;43484;43.608;1.458;2022-08-06T07:12:19;100075.00;;;22.70;100.00
49723;BME280;43484;43.608;1.458;2022-08-06T07:14:53;100070.72;;;22.65;100.00
49723;BME280;43484;43.608;1.458;2022-08-06T07:17:27;100071.81;;;22.50;100.00
49723;BME280;43484;43.608;1.458;2022-08-06T07:20:18;100084.25;;;22.89;100.00
49723;BME280;43484;43.608;1.458;2022-08-06T07:22:53;100086.84;;;22.92;100.00
49723;BME280;43484;43.608;1.458;2022-08-06T07:25:43;100082.72;;;22.76;100.00
49723;BME280;43484;43.608;1.458;2022-08-06T07:28:22;100088.03;;;22.72;100.00
49723;BME280;43484;43.608;1.458;2022-08-06T07:30:55;100085.41;;;22.73;100.00
49723;BME280;43484;43.608;1.458;2022-08-06T07:33:31;100084.78;;;22.56;100.00
49723;BME280;43484;43.608;1.458;2022-08-06T07:36:21;100085.97;;;22.92;100.00
49723;BME280;43484;43.608;1.458;2022-08-06T07:38:55;100086.25;;;22.75;100.00
49723;BME280;43484;43.608;1.458;2022-08-06T07:41:26;100087.03;;;22.80;100.00
49723;BME280;43484;43.608;1.458;2022-08-06T07:44:14;100092.69;;;23.06;100.00
49723;BME280;43484;43.608;1.458;2022-08-06T07:46:46;100096.94;;;23.12;100.00
49723;BME280;43484;43.608;1.458;2022-08-06T07:49:20;100102.16;;;23.13;100.00
49723;BME280;43484;43.608;1.458;2022-08-06T07:51:57;100098.63;;;23.16;100.00
49723;BME280;43484;43.608;1.458;2022-08-06T07:54:25;100098.13;;;23.46;100.00
49723;BME280;43484;43.608;1.458;2022-08-06T07:56:59;100108.59;;;23.44;100.00
49723;BME280;43484;43.608;1.458;2022-08-06T07:59:29;100107.53;;;23.54;100.00
49723;BME280;43484;43.608;1.458;2022-08-06T08:01:58;100102.53;;;23.42;100.00
49723;BME280;43484;43.608;1.458;2022-08-06T08:04:28;100104.56;;;23.25;100.00
49723;BME280;43484;43.608;1.458;2022-08-06T08:07:20;100104.69;;;23.67;100.00
49723;BME280;43484;43.608;1.458;2022-08-06T08:10:03;100106.16;;;23.80;100.00
49723;BME280;43484;43.608;1.458;2022-08-06T08:12:31;100116.25;;;23.55;100.00
49723;BME280;43484;43.608;1.458;2022-08-06T08:15:04;100124.16;;;23.52;100.00
49723;BME280;43484;43.608;1.458;2022-08-06T08:17:44;100117.97;;;23.56;100.00
49723;BME280;43484;43.608;1.458;2022-08-06T08:20:25;100117.53;;;23.79;100.00
49723;BME280;43484;43.608;1.458;2022-08-06T08:23:01;100118.19;;;23.88;100.00
49723;BME280;43484;43.608;1.458;2022-08-06T08:25:29;100112.75;;;24.00;100.00
49723;BME280;43484;43.608;1.458;2022-08-06T08:28:10;100116.72;;;24.19;100.00
49723;BME280;43484;43.608;1.458;2022-08-06T08:30:40;100109.47;;;24.32;100.00
49723;BME280;43484;43.608;1.458;2022-08-06T08:33:08;100108.50;;;24.36;100.00
49723;BME280;43484;43.608;1.458;2022-08-06T08:35:37;100116.22;;;24.42;100.00
49723;BME280;43484;43.608;1.458;2022-08-06T08:38:04;100110.78;;;24.51;100.00
49723;BME280;43484;43.608;1.458;2022-08-06T08:40:34;100106.53;;;24.45;100.00
49723;BME280;43484;43.608;1.458;2022-08-06T08:43:02;100113.25;;;24.57;100.00
49723;BME280;43484;43.608;1.458;2022-08-06T08:45:32;100118.16;;;24.72;100.00
49723;BME280;43484;43.608;1.458;2022-08-06T08:48:01;100103.88;;;24.85;100.00
49723;BME280;43484;43.608;1.458;2022-08-06T08:50:31;100105.38;;;24.97;100.00
49723;BME280;43484;43.608;1.458;2022-08-06T08:53:09;100108.34;;;24.42;100.00
49723;BME280;43484;43.608;1.458;2022-08-06T08:55:40;100108.41;;;24.40;100.00
49723;BME280;43484;43.608;1.458;2022-08-06T08:58:27;100113.53;;;24.45;100.00
49723;BME280;43484;43.608;1.458;2022-08-06T09:01:11;100100.44;;;24.45;100.00
49723;BME280;43484;43.608;1.458;2022-08-06T09:04:02;100107.06;;;24.61;100.00
49723;BME280;43484;43.608;1.458;2022-08-06T09:06:30;100104.16;;;24.74;100.00
49723;BME280;43484;43.608;1.458;2022-08-06T09:09:04;100109.13;;;24.85;100.00
49723;BME280;43484;43.608;1.458;2022-08-06T09:11:32;100102.44;;;24.72;100.00
49723;BME280;43484;43.608;1.458;2022-08-06T09:14:20;100098.91;;;24.74;100.00
49723;BME280;43484;43.608;1.458;2022-08-06T09:16:53;100091.31;;;24.99;100.00
49723;BME280;43484;43.608;1.458;2022-08-06T09:19:21;100093.25;;;24.91;100.00
49723;BME280;43484;43.608;1.458;2022-08-06T09:21:57;100097.28;;;25.04;100.00
49723;BME280;43484;43.608;1.458;2022-08-06T09:24:26;100092.78;;;25.09;100.00
49723;BME280;43484;43.608;1.458;2022-08-06T09:27:11;100099.56;;;25.18;100.00
49723;BME280;43484;43.608;1.458;2022-08-06T09:30:00;100089.34;;;25.07;100.00
49723;BME280;43484;43.608;1.458;2022-08-06T09:32:47;100090.69;;;25.23;100.00
49723;BME280;43484;43.608;1.458;2022-08-06T09:35:28;100089.88;;;25.21;100.00
49723;BME280;43484;43.608;1.458;2022-08-06T09:38:13;100087.47;;;25.46;100.00
49723;BME280;43484;43.608;1.458;2022-08-06T09:41:02;100083.38;;;25.36;100.00
49723;BME280;43484;43.608;1.458;2022-08-06T09:43:32;100074.41;;;25.44;100.00
49723;BME280;43484;43.608;1.458;2022-08-06T09:46:43;100075.69;;;25.62;100.00
49723;BME280;43484;43.608;1.458;2022-08-06T09:49:16;100072.78;;;25.71;100.00
49723;BME280;43484;43.608;1.458;2022-08-06T09:52:10;100073.69;;;25.70;100.00
49723;BME280;43484;43.608;1.458;2022-08-06T09:54:39;100071.13;;;25.97;100.00
49723;BME280;43484;43.608;1.458;2022-08-06T09:57:06;100071.56;;;26.13;100.00
49723;BME280;43484;43.608;1.458;2022-08-06T09:59:46;100068.22;;;26.08;100.00
49723;BME280;43484;43.608;1.458;2022-08-06T10:02:17;100075.06;;;26.14;100.00
49723;BME280;43484;43.608;1.458;2022-08-06T10:05:08;100077.50;;;26.20;100.00
49723;BME280;43484;43.608;1.458;2022-08-06T10:07:44;100072.31;;;26.18;100.00
49723;BME280;43484;43.608;1.458;2022-08-06T10:10:12;100075.38;;;26.32;100.00
49723;BME280;43484;43.608;1.458;2022-08-06T10:13:11;100064.28;;;25.93;100.00
49723;BME280;43484;43.608;1.458;2022-08-06T10:15:39;100066.91;;;26.23;100.00
49723;BME280;43484;43.608;1.458;2022-08-06T10:21:29;100061.28;;;26.35;100.00
49723;BME280;43484;43.608;1.458;2022-08-06T10:24:09;100060.56;;;26.57;100.00
49723;BME280;43484;43.608;1.458;2022-08-06T10:26:37;100053.34;;;26.64;100.00
49723;BME280;43484;43.608;1.458;2022-08-06T10:29:10;100050.94;;;26.56;100.00
49723;BME280;43484;43.608;1.458;2022-08-06T10:31:39;100053.16;;;26.70;100.00
49723;BME280;43484;43.608;1.458;2022-08-06T10:34:13;100041.28;;;26.84;100.00
49723;BME280;43484;43.608;1.458;2022-08-06T10:37:00;100046.19;;;26.95;100.00
49723;BME280;43484;43.608;1.458;2022-08-06T10:39:53;100037.88;;;27.07;100.00
49723;BME280;43484;43.608;1.458;2022-08-06T10:42:37;100040.28;;;27.13;100.00
49723;BME280;43484;43.608;1.458;2022-08-06T10:45:08;100035.94;;;27.38;100.00
49723;BME280;43484;43.608;1.458;2022-08-06T10:47:44;100036.22;;;27.31;100.00
49723;BME280;43484;43.608;1.458;2022-08-06T10:50:31;100024.28;;;27.45;100.00
49723;BME280;43484;43.608;1.458;2022-08-06T10:53:17;100022.63;;;27.66;100.00
49723;BME280;43484;43.608;1.458;2022-08-06T10:56:06;100019.69;;;27.50;100.00
49723;BME280;43484;43.608;1.458;2022-08-06T10:58:36;100022.16;;;27.55;100.00
49723;BME280;43484;43.608;1.458;2022-08-06T11:01:35;100013.75;;;27.45;100.00
49723;BME280;43484;43.608;1.458;2022-08-06T11:07:00;100013.97;;;27.85;100.00
49723;BME280;43484;43.608;1.458;2022-08-06T11:15:17;100000.66;;;27.90;100.00
49723;BME280;43484;43.608;1.458;2022-08-06T11:17:54;100003.09;;;27.96;100.00
49723;BME280;43484;43.608;1.458;2022-08-06T11:20:38;100000.03;;;28.06;100.00
49723;BME280;43484;43.608;1.458;2022-08-06T11:26:03;99994.75;;;27.83;100.00
49723;BME280;43484;43.608;1.458;2022-08-06T11:31:03;99985.59;;;28.38;100.00
49723;BME280;43484;43.608;1.458;2022-08-06T11:36:06;99985.53;;;28.40;100.00
49723;BME280;43484;43.608;1.458;2022-08-06T11:41:24;99980.66;;;28.29;100.00
49723;BME280;43484;43.608;1.458;2022-08-06T11:44:12;99970.91;;;28.74;100.00
49723;BME280;43484;43.608;1.458;2022-08-06T11:46:47;99970.16;;;28.71;100.00
49723;BME280;43484;43.608;1.458;2022-08-06T11:49:19;99972.56;;;28.77;99.04
49723;BME280;43484;43.608;1.458;2022-08-06T12:07:44;99962.34;;;28.89;93.00
49723;BME280;43484;43.608;1.458;2022-08-06T12:10:17;99953.81;;;29.03;93.19
49723;BME280;43484;43.608;1.458;2022-08-06T12:12:55;99948.03;;;29.15;91.47
49723;BME280;43484;43.608;1.458;2022-08-06T12:18:12;99938.16;;;29.20;87.39
49723;BME280;43484;43.608;1.458;2022-08-06T12:20:46;99938.59;;;29.09;94.67
49723;BME280;43484;43.608;1.458;2022-08-06T12:23:22;99929.13;;;29.24;96.16
49723;BME280;43484;43.608;1.458;2022-08-06T12:26:09;99933.50;;;29.25;95.58
49723;BME280;43484;43.608;1.458;2022-08-06T12:28:36;99934.66;;;29.38;88.95
49723;BME280;43484;43.608;1.458;2022-08-06T12:31:04;99926.59;;;29.41;85.64
49723;BME280;43484;43.608;1.458;2022-08-06T12:33:51;99925.38;;;29.68;88.41
49723;BME280;43484;43.608;1.458;2022-08-06T12:36:18;99924.16;;;29.75;88.25
49723;BME280;43484;43.608;1.458;2022-08-06T12:39:05;99922.22;;;29.79;88.45
49723;BME280;43484;43.608;1.458;2022-08-06T12:41:45;99928.66;;;29.73;86.56
49723;BME280;43484;43.608;1.458;2022-08-06T12:44:13;99920.56;;;29.76;84.49
49723;BME280;43484;43.608;1.458;2022-08-06T12:47:11;99921.75;;;29.71;83.17
49723;BME280;43484;43.608;1.458;2022-08-06T12:49:39;99911.50;;;29.82;80.47
49723;BME280;43484;43.608;1.458;2022-08-06T12:52:17;99907.56;;;29.90;80.43
49723;BME280;43484;43.608;1.458;2022-08-06T12:54:55;99907.63;;;29.51;78.24
49723;BME280;43484;43.608;1.458;2022-08-06T12:57:24;99901.16;;;29.59;75.40
49723;BME280;43484;43.608;1.458;2022-08-06T13:00:12;99895.88;;;29.77;77.24
49723;BME280;43484;43.608;1.458;2022-08-06T13:02:40;99896.22;;;29.88;77.16
49723;BME280;43484;43.608;1.458;2022-08-06T13:05:11;99895.78;;;29.97;77.84
49723;BME280;43484;43.608;1.458;2022-08-06T13:07:40;99899.19;;;29.99;78.08
49723;BME280;43484;43.608;1.458;2022-08-06T13:10:12;99896.94;;;29.92;79.61
49723;BME280;43484;43.608;1.458;2022-08-06T13:13:04;99892.75;;;30.05;79.23
49723;BME280;43484;43.608;1.458;2022-08-06T13:16:07;99891.09;;;29.85;80.12
49723;BME280;43484;43.608;1.458;2022-08-06T13:18:35;99869.19;;;30.00;81.22
49723;BME280;43484;43.608;1.458;2022-08-06T13:21:22;99872.75;;;30.35;77.17
49723;BME280;43484;43.608;1.458;2022-08-06T13:24:12;99855.66;;;30.25;78.13
49723;BME280;43484;43.608;1.458;2022-08-06T13:26:52;99868.72;;;30.45;77.75
49723;BME280;43484;43.608;1.458;2022-08-06T13:29:23;99862.88;;;30.55;77.45
49723;BME280;43484;43.608;1.458;2022-08-06T13:32:11;99859.97;;;30.77;74.53
49723;BME280;43484;43.608;1.458;2022-08-06T13:34:59;99855.13;;;30.35;76.62
49723;BME280;43484;43.608;1.458;2022-08-06T13:43:12;99852.75;;;30.63;71.85
49723;BME280;43484;43.608;1.458;2022-08-06T13:48:45;99833.97;;;30.52;70.62
49723;BME280;43484;43.608;1.458;2022-08-06T13:51:14;99841.09;;;30.67;69.08
49723;BME280;43484;43.608;1.458;2022-08-06T13:53:54;99835.19;;;30.62;68.42
49723;BME280;43484;43.608;1.458;2022-08-06T13:56:23;99834.50;;;30.59;69.66
49723;BME280;43484;43.608;1.458;2022-08-06T13:58:54;99816.91;;;30.58;68.72
49723;BME280;43484;43.608;1.458;2022-08-06T14:01:22;99821.16;;;30.78;66.93
49723;BME280;43484;43.608;1.458;2022-08-06T14:03:49;99817.66;;;30.77;68.27
49723;BME280;43484;43.608;1.458;2022-08-06T14:06:16;99822.94;;;30.94;68.77
49723;BME280;43484;43.608;1.458;2022-08-06T14:08:43;99822.72;;;31.30;64.38
49723;BME280;43484;43.608;1.458;2022-08-06T14:11:14;99821.63;;;30.86;66.54
49723;BME280;43484;43.608;1.458;2022-08-06T14:13:41;99801.41;;;30.67;68.88
49723;BME280;43484;43.608;1.458;2022-08-06T14:16:08;99799.78;;;30.82;67.39
49723;BME280;43484;43.608;1.458;2022-08-06T14:18:35;99809.25;;;30.86;66.23
49723;BME280;43484;43.608;1.458;2022-08-06T14:21:22;99802.31;;;30.84;67.12
49723;BME280;43484;43.608;1.458;2022-08-06T14:23:50;99800.50;;;31.17;63.71
49723;BME280;43484;43.608;1.458;2022-08-06T14:26:32;99798.63;;;31.19;63.01
49723;BME280;43484;43.608;1.458;2022-08-06T14:28:59;99794.47;;;30.82;66.05
49723;BME280;43484;43.608;1.458;2022-08-06T14:31:49;99787.97;;;31.05;65.01
49723;BME280;43484;43.608;1.458;2022-08-06T14:34:23;99788.00;;;31.03;65.12
49723;BME280;43484;43.608;1.458;2022-08-06T14:37:03;99791.97;;;31.27;62.55
49723;BME280;43484;43.608;1.458;2022-08-06T14:39:40;99786.59;;;31.29;61.49
49723;BME280;43484;43.608;1.458;2022-08-06T14:42:26;99777.78;;;31.28;60.14
49723;BME280;43484;43.608;1.458;2022-08-06T14:45:14;99782.16;;;31.29;59.83
49723;BME280;43484;43.608;1.458;2022-08-06T14:47:47;99770.44;;;31.18;60.93